createdAt,value
2018-12-24T00:00:11.818Z,15.98
2018-12-24T00:01:11.819Z,15.99
2018-12-24T00:02:11.794Z,16.00
2018-12-24T00:03:11.795Z,15.98
2018-12-24T00:04:11.790Z,16.00
2018-12-24T00:05:11.766Z,15.99
2018-12-24T00:06:11.755Z,15.96
2018-12-24T00:07:11.742Z,16.03
2018-12-24T00:08:11.741Z,15.99
2018-12-24T00:09:11.872Z,16.03
2018-12-24T00:10:11.712Z,15.99
2018-12-24T00:11:11.696Z,16.00
2018-12-24T00:12:11.688Z,15.98
2018-12-24T00:13:11.676Z,15.99
2018-12-24T00:14:11.681Z,16.02
2018-12-24T00:15:11.665Z,16.03
2018-12-24T00:16:11.650Z,16.00
2018-12-24T00:17:11.657Z,15.92
2018-12-24T00:18:11.623Z,16.00
2018-12-24T00:19:11.645Z,15.98
2018-12-24T00:20:11.604Z,15.96
2018-12-24T00:21:11.595Z,15.98
2018-12-24T00:22:11.584Z,15.99
2018-12-24T00:23:11.598Z,15.94
2018-12-24T00:24:11.568Z,15.90
2018-12-24T00:25:11.668Z,15.90
2018-12-24T00:26:11.554Z,15.99
2018-12-24T00:27:11.535Z,15.90
2018-12-24T00:28:11.534Z,16.00
2018-12-24T00:29:11.511Z,15.91
2018-12-24T00:30:11.513Z,15.87
2018-12-24T00:31:11.486Z,15.94
2018-12-24T00:32:11.478Z,15.91
2018-12-24T00:33:11.465Z,15.96
2018-12-24T00:34:11.453Z,15.91
2018-12-24T00:35:11.460Z,15.91
2018-12-24T00:36:11.431Z,15.91
2018-12-24T00:37:11.420Z,15.92
2018-12-24T00:38:11.410Z,15.92
2018-12-24T00:39:11.398Z,15.91
2018-12-24T00:40:11.406Z,15.87
2018-12-24T00:41:11.389Z,15.88
2018-12-24T00:42:15.857Z,15.88
2018-12-24T00:43:11.390Z,15.87
2018-12-24T00:44:11.357Z,16.00
2018-12-24T00:45:11.392Z,15.90
2018-12-24T00:46:11.325Z,15.98
2018-12-24T00:47:11.316Z,15.92
2018-12-24T00:48:11.306Z,15.87
2018-12-24T00:49:11.292Z,15.94
2018-12-24T00:50:11.289Z,15.90
2018-12-24T00:51:11.291Z,15.88
2018-12-24T00:52:11.262Z,15.87
2018-12-24T00:53:11.252Z,15.88
2018-12-24T00:54:11.247Z,15.91
2018-12-24T00:55:11.229Z,15.92
2018-12-24T00:56:11.257Z,15.85
2018-12-24T00:57:11.208Z,15.85
2018-12-24T00:58:11.199Z,15.94
2018-12-24T00:59:11.188Z,15.85
2018-12-24T01:00:11.182Z,15.92
2018-12-24T01:01:11.192Z,15.91
2018-12-24T01:02:11.152Z,15.88
2018-12-24T01:03:11.144Z,15.87
2018-12-24T01:04:11.140Z,15.87
2018-12-24T01:05:11.122Z,15.88
2018-12-24T01:06:11.125Z,15.92
2018-12-24T01:07:11.110Z,15.85
2018-12-24T01:08:11.102Z,15.96
2018-12-24T01:09:11.079Z,15.90
2018-12-24T01:10:11.068Z,15.96
2018-12-24T01:11:11.081Z,15.92
2018-12-24T01:12:11.058Z,15.90
2018-12-24T01:13:11.041Z,15.87
2018-12-24T01:14:11.033Z,15.84
2018-12-24T01:15:11.022Z,15.91
2018-12-24T01:16:11.029Z,15.90
2018-12-24T01:17:10.999Z,15.90
2018-12-24T01:18:10.984Z,15.85
2018-12-24T01:19:10.977Z,15.91
2018-12-24T01:20:10.971Z,15.88
2018-12-24T01:21:10.974Z,15.94
2018-12-24T01:22:10.943Z,15.85
2018-12-24T01:23:10.931Z,15.85
2018-12-24T01:24:10.922Z,15.96
2018-12-24T01:25:10.911Z,15.94
2018-12-24T01:26:10.924Z,15.88
2018-12-24T01:27:10.889Z,15.81
2018-12-24T01:28:10.885Z,15.90
2018-12-24T01:29:10.872Z,15.78
2018-12-24T01:30:10.856Z,15.75
2018-12-24T01:31:10.860Z,15.85
2018-12-24T01:32:10.835Z,15.85
2018-12-24T01:33:10.834Z,15.76
2018-12-24T01:34:10.824Z,15.83
2018-12-24T01:35:10.802Z,15.83
2018-12-24T01:36:10.823Z,15.78
2018-12-24T01:37:10.785Z,15.73
2018-12-24T01:38:10.795Z,15.80
2018-12-24T01:39:10.760Z,15.84
2018-12-24T01:40:10.756Z,15.91
2018-12-24T01:41:10.784Z,15.78
2018-12-24T01:42:10.733Z,15.92
2018-12-24T01:43:10.725Z,15.84
2018-12-24T01:44:10.717Z,15.81
2018-12-24T01:45:10.697Z,15.73
2018-12-24T01:46:10.693Z,15.76
2018-12-24T01:47:10.689Z,15.76
2018-12-24T01:48:10.668Z,15.84
2018-12-24T01:49:10.654Z,15.84
2018-12-24T01:50:10.643Z,15.72
2018-12-24T01:51:10.673Z,15.81
2018-12-24T01:52:10.638Z,15.81
2018-12-24T01:53:10.613Z,15.83
2018-12-24T01:54:10.599Z,15.83
2018-12-24T01:55:10.588Z,15.85
2018-12-24T01:56:10.588Z,15.98
2018-12-24T01:57:10.581Z,15.83
2018-12-24T01:58:10.559Z,15.85
2018-12-24T01:59:10.543Z,15.88
2018-12-24T02:00:10.535Z,15.81
2018-12-24T02:01:10.527Z,15.73
2018-12-24T02:02:10.537Z,15.70
2018-12-24T02:03:10.500Z,15.80
2018-12-24T02:04:10.492Z,15.81
2018-12-24T02:05:10.480Z,15.84
2018-12-24T02:06:10.471Z,15.78
2018-12-24T02:07:10.476Z,15.81
2018-12-24T02:08:10.447Z,15.85
2018-12-24T02:09:10.431Z,15.80
2018-12-24T02:10:10.424Z,15.83
2018-12-24T02:11:10.415Z,15.78
2018-12-24T02:12:10.418Z,15.81
2018-12-24T02:13:10.396Z,15.81
2018-12-24T02:14:10.382Z,15.84
2018-12-24T02:15:10.389Z,15.83
2018-12-24T02:16:10.361Z,15.78
2018-12-24T02:17:10.374Z,15.80
2018-12-24T02:18:10.338Z,15.81
2018-12-24T02:19:10.330Z,15.84
2018-12-24T02:20:10.324Z,15.83
2018-12-24T02:21:10.334Z,15.81
2018-12-24T02:22:12.935Z,15.78
2018-12-24T02:23:10.295Z,15.75
2018-12-24T02:24:10.275Z,15.80
2018-12-24T02:25:10.266Z,15.84
2018-12-24T02:26:10.265Z,15.87
2018-12-24T02:27:10.276Z,15.92
2018-12-24T02:28:10.232Z,15.83
2018-12-24T02:29:10.221Z,15.84
2018-12-24T02:30:10.208Z,15.80
2018-12-24T02:31:10.208Z,15.84
2018-12-24T02:32:10.189Z,15.76
2018-12-24T02:33:10.191Z,15.83
2018-12-24T02:34:10.166Z,15.87
2018-12-24T02:35:10.160Z,15.84
2018-12-24T02:36:10.153Z,15.69
2018-12-24T02:37:10.140Z,15.70
2018-12-24T02:38:10.139Z,15.78
2018-12-24T02:39:10.115Z,15.80
2018-12-24T02:40:10.108Z,15.83
2018-12-24T02:41:10.094Z,15.78
2018-12-24T02:42:10.082Z,15.70
2018-12-24T02:43:10.084Z,15.81
2018-12-24T02:44:10.063Z,15.80
2018-12-24T02:45:10.051Z,15.81
2018-12-24T02:46:10.053Z,15.78
2018-12-24T02:47:10.053Z,15.78
2018-12-24T02:48:10.035Z,15.81
2018-12-24T02:49:10.008Z,15.81
2018-12-24T02:50:10.005Z,15.75
2018-12-24T02:51:09.992Z,15.76
2018-12-24T02:52:09.979Z,15.75
2018-12-24T02:53:09.989Z,15.75
2018-12-24T02:54:09.951Z,15.81
2018-12-24T02:55:09.943Z,15.72
2018-12-24T02:56:09.934Z,15.69
2018-12-24T02:57:09.918Z,15.80
2018-12-24T02:58:09.925Z,15.69
2018-12-24T02:59:09.897Z,15.81
2018-12-24T03:00:09.882Z,15.76
2018-12-24T03:01:09.879Z,15.76
2018-12-24T03:02:09.869Z,15.80
2018-12-24T03:03:09.878Z,15.73
2018-12-24T03:04:09.846Z,15.72
2018-12-24T03:05:09.834Z,15.73
2018-12-24T03:06:09.825Z,15.76
2018-12-24T03:07:09.812Z,15.75
2018-12-24T03:08:09.820Z,15.72
2018-12-24T03:09:09.789Z,15.75
2018-12-24T03:10:09.776Z,15.67
2018-12-24T03:11:09.777Z,15.76
2018-12-24T03:12:09.760Z,15.69
2018-12-24T03:13:09.760Z,15.81
2018-12-24T03:14:09.745Z,15.76
2018-12-24T03:15:09.723Z,15.75
2018-12-24T03:16:09.715Z,15.73
2018-12-24T03:17:09.699Z,15.75
2018-12-24T03:18:09.716Z,15.76
2018-12-24T03:19:09.679Z,15.80
2018-12-24T03:20:09.674Z,15.75
2018-12-24T03:21:09.659Z,15.80
2018-12-24T03:22:09.648Z,15.76
2018-12-24T03:23:09.669Z,15.78
2018-12-24T03:24:09.631Z,15.72
2018-12-24T03:25:09.612Z,15.78
2018-12-24T03:26:09.605Z,15.78
2018-12-24T03:27:09.595Z,15.70
2018-12-24T03:28:09.578Z,15.70
2018-12-24T03:29:09.592Z,15.70
2018-12-24T03:30:09.568Z,15.78
2018-12-24T03:31:09.552Z,15.67
2018-12-24T03:32:09.541Z,15.78
2018-12-24T03:33:09.577Z,15.75
2018-12-24T03:34:09.531Z,15.73
2018-12-24T03:35:09.507Z,15.70
2018-12-24T03:36:09.574Z,15.72
2018-12-24T03:37:09.492Z,15.75
2018-12-24T03:38:09.474Z,15.75
2018-12-24T03:39:09.482Z,15.70
2018-12-24T03:40:09.462Z,15.70
2018-12-24T03:41:09.441Z,15.75
2018-12-24T03:42:09.437Z,15.73
2018-12-24T03:43:12.946Z,15.75
2018-12-24T03:44:09.421Z,15.66
2018-12-24T03:45:09.401Z,15.73
2018-12-24T03:46:09.386Z,15.65
2018-12-24T03:47:09.384Z,15.72
2018-12-24T03:48:09.374Z,15.72
2018-12-24T03:49:09.373Z,15.70
2018-12-24T03:50:09.345Z,15.70
2018-12-24T03:51:09.335Z,15.72
2018-12-24T03:52:09.327Z,15.72
2018-12-24T03:53:09.320Z,15.70
2018-12-24T03:54:09.318Z,15.69
2018-12-24T03:55:09.296Z,15.75
2018-12-24T03:56:09.281Z,15.67
2018-12-24T03:57:09.276Z,15.69
2018-12-24T03:58:09.261Z,15.70
2018-12-24T03:59:09.268Z,15.70
2018-12-24T04:00:09.234Z,15.69
2018-12-24T04:01:09.230Z,15.69
2018-12-24T04:02:09.216Z,15.67
2018-12-24T04:03:09.203Z,15.63
2018-12-24T04:04:09.204Z,15.67
2018-12-24T04:05:09.190Z,15.66
2018-12-24T04:06:09.182Z,15.57
2018-12-24T04:07:09.165Z,15.62
2018-12-24T04:08:09.151Z,15.67
2018-12-24T04:09:09.155Z,15.63
2018-12-24T04:10:09.135Z,15.62
2018-12-24T04:11:09.125Z,15.59
2018-12-24T04:12:09.110Z,15.57
2018-12-24T04:13:09.100Z,15.66
2018-12-24T04:14:09.103Z,15.62
2018-12-24T04:15:09.081Z,15.62
2018-12-24T04:16:09.071Z,15.62
2018-12-24T04:17:09.059Z,15.66
2018-12-24T04:18:09.045Z,15.67
2018-12-24T04:19:09.049Z,15.65
2018-12-24T04:20:09.022Z,15.65
2018-12-24T04:21:09.010Z,15.54
2018-12-24T04:22:09.006Z,15.66
2018-12-24T04:23:08.993Z,15.52
2018-12-24T04:24:08.999Z,15.63
2018-12-24T04:25:08.974Z,15.63
2018-12-24T04:26:08.965Z,15.62
2018-12-24T04:27:08.956Z,15.57
2018-12-24T04:28:08.941Z,15.62
2018-12-24T04:29:08.946Z,15.57
2018-12-24T04:30:08.930Z,15.55
2018-12-24T04:31:08.912Z,15.62
2018-12-24T04:32:08.895Z,15.52
2018-12-24T04:33:08.890Z,15.57
2018-12-24T04:34:08.897Z,15.59
2018-12-24T04:35:08.954Z,15.57
2018-12-24T04:36:08.853Z,15.52
2018-12-24T04:37:08.843Z,15.57
2018-12-24T04:38:08.833Z,15.52
2018-12-24T04:39:08.836Z,15.52
2018-12-24T04:40:08.948Z,15.57
2018-12-24T04:41:08.818Z,15.60
2018-12-24T04:42:08.874Z,15.57
2018-12-24T04:43:08.797Z,15.57
2018-12-24T04:44:08.806Z,15.59
2018-12-24T04:45:08.874Z,15.60
2018-12-24T04:46:08.748Z,15.55
2018-12-24T04:47:08.739Z,15.57
2018-12-24T04:48:08.730Z,15.52
2018-12-24T04:49:08.742Z,15.62
2018-12-24T04:50:08.699Z,15.59
2018-12-24T04:51:08.697Z,15.59
2018-12-24T04:52:08.709Z,15.62
2018-12-24T04:53:08.670Z,15.57
2018-12-24T04:54:08.659Z,15.60
2018-12-24T04:55:08.665Z,15.59
2018-12-24T04:56:08.634Z,15.55
2018-12-24T04:57:08.624Z,15.55
2018-12-24T04:58:08.610Z,15.54
2018-12-24T04:59:08.605Z,15.45
2018-12-24T05:00:08.603Z,15.50
2018-12-24T05:01:08.579Z,15.57
2018-12-24T05:02:08.574Z,15.57
2018-12-24T05:03:08.566Z,15.55
2018-12-24T05:04:08.550Z,15.60
2018-12-24T05:05:08.568Z,15.50
2018-12-24T05:06:08.529Z,15.51
2018-12-24T05:07:08.512Z,15.50
2018-12-24T05:08:08.504Z,15.54
2018-12-24T05:09:08.498Z,15.50
2018-12-24T05:10:08.493Z,15.55
2018-12-24T05:11:08.477Z,15.51
2018-12-24T05:12:08.454Z,15.50
2018-12-24T05:13:08.451Z,15.51
2018-12-24T05:14:08.437Z,15.51
2018-12-24T05:15:08.444Z,15.48
2018-12-24T05:16:08.424Z,15.54
2018-12-24T05:17:08.408Z,15.51
2018-12-24T05:18:08.394Z,15.51
2018-12-24T05:19:08.380Z,15.48
2018-12-24T05:20:08.383Z,15.50
2018-12-24T05:21:08.365Z,15.50
2018-12-24T05:22:08.346Z,15.48
2018-12-24T05:23:08.340Z,15.51
2018-12-24T05:24:08.326Z,15.50
2018-12-24T05:25:08.348Z,15.51
2018-12-24T05:26:08.307Z,15.50
2018-12-24T05:27:08.295Z,15.48
2018-12-24T05:28:08.292Z,15.45
2018-12-24T05:29:08.269Z,15.51
2018-12-24T05:30:08.276Z,15.47
2018-12-24T05:31:08.248Z,15.47
2018-12-24T05:32:08.243Z,15.44
2018-12-24T05:33:08.232Z,15.47
2018-12-24T05:34:08.223Z,15.47
2018-12-24T05:35:08.221Z,15.45
2018-12-24T05:36:08.198Z,15.44
2018-12-24T05:37:08.182Z,15.39
2018-12-24T05:38:08.181Z,15.41
2018-12-24T05:39:08.171Z,15.44
2018-12-24T05:40:08.180Z,15.47
2018-12-24T05:41:08.146Z,15.37
2018-12-24T05:42:08.135Z,15.43
2018-12-24T05:43:08.123Z,15.39
2018-12-24T05:44:08.111Z,15.39
2018-12-24T05:45:08.097Z,15.37
2018-12-24T05:46:08.113Z,15.36
2018-12-24T05:47:08.078Z,15.44
2018-12-24T05:48:08.062Z,15.36
2018-12-24T05:49:08.053Z,15.39
2018-12-24T05:50:08.047Z,15.45
2018-12-24T05:51:08.045Z,15.41
2018-12-24T05:52:08.027Z,15.43
2018-12-24T05:53:08.015Z,15.44
2018-12-24T05:54:08.040Z,15.44
2018-12-24T05:55:07.993Z,15.41
2018-12-24T05:56:09.501Z,15.39
2018-12-24T05:57:08.035Z,15.39
2018-12-24T05:58:07.966Z,15.41
2018-12-24T05:59:07.949Z,15.41
2018-12-24T06:00:07.942Z,15.39
2018-12-24T06:01:07.948Z,15.47
2018-12-24T06:02:07.913Z,15.36
2018-12-24T06:03:07.915Z,15.39
2018-12-24T06:04:07.887Z,15.39
2018-12-24T06:05:07.887Z,15.41
2018-12-24T06:06:07.881Z,15.41
2018-12-24T06:07:07.871Z,15.37
2018-12-24T06:08:07.848Z,15.37
2018-12-24T06:09:07.838Z,15.39
2018-12-24T06:10:07.834Z,15.43
2018-12-24T06:11:07.832Z,15.37
2018-12-24T06:12:07.807Z,15.39
2018-12-24T06:13:07.795Z,15.41
2018-12-24T06:14:07.794Z,15.41
2018-12-24T06:15:07.774Z,15.43
2018-12-24T06:16:07.794Z,15.35
2018-12-24T06:17:07.748Z,15.35
2018-12-24T06:18:07.739Z,15.39
2018-12-24T06:19:07.737Z,15.41
2018-12-24T06:20:07.717Z,15.45
2018-12-24T06:21:07.732Z,15.36
2018-12-24T06:22:07.694Z,15.41
2018-12-24T06:23:07.687Z,15.41
2018-12-24T06:24:07.673Z,15.39
2018-12-24T06:25:07.660Z,15.32
2018-12-24T06:26:07.651Z,15.35
2018-12-24T06:27:07.654Z,15.36
2018-12-24T06:28:07.632Z,15.43
2018-12-24T06:29:07.615Z,15.36
2018-12-24T06:30:07.610Z,15.43
2018-12-24T06:31:07.603Z,15.33
2018-12-24T06:32:07.601Z,15.35
2018-12-24T06:33:07.580Z,15.35
2018-12-24T06:34:07.566Z,15.22
2018-12-24T06:35:07.617Z,15.27
2018-12-24T06:36:07.543Z,15.22
2018-12-24T06:37:07.561Z,15.23
2018-12-24T06:38:07.525Z,15.26
2018-12-24T06:39:07.509Z,15.25
2018-12-24T06:40:07.500Z,15.30
2018-12-24T06:41:07.486Z,15.26
2018-12-24T06:42:07.488Z,15.19
2018-12-24T06:43:07.463Z,15.23
2018-12-24T06:44:07.456Z,15.26
2018-12-24T06:45:07.447Z,15.25
2018-12-24T06:46:07.431Z,15.26
2018-12-24T06:47:07.433Z,15.19
2018-12-24T06:48:07.412Z,15.23
2018-12-24T06:49:07.398Z,15.17
2018-12-24T06:50:07.389Z,15.14
2018-12-24T06:51:07.380Z,15.14
2018-12-24T06:52:07.377Z,15.14
2018-12-24T06:53:07.357Z,15.14
2018-12-24T06:54:07.342Z,15.11
2018-12-24T06:55:07.335Z,15.15
2018-12-24T06:56:07.320Z,15.15
2018-12-24T06:57:07.331Z,15.08
2018-12-24T06:58:07.303Z,15.11
2018-12-24T06:59:07.294Z,15.11
2018-12-24T07:00:07.276Z,15.08
2018-12-24T07:01:07.267Z,15.07
2018-12-24T07:02:07.274Z,15.02
2018-12-24T07:03:07.241Z,15.02
2018-12-24T07:04:07.232Z,15.02
2018-12-24T07:05:07.222Z,15.04
2018-12-24T07:06:07.211Z,15.02
2018-12-24T07:07:07.224Z,15.04
2018-12-24T07:08:07.187Z,15.11
2018-12-24T07:09:07.178Z,15.02
2018-12-24T07:10:07.171Z,15.02
2018-12-24T07:11:07.159Z,14.99
2018-12-24T07:12:07.146Z,15.04
2018-12-24T07:13:07.148Z,15.00
2018-12-24T07:14:15.226Z,15.02
2018-12-24T07:15:08.110Z,14.96
2018-12-24T07:16:07.100Z,14.90
2018-12-24T07:17:07.091Z,14.96
2018-12-24T07:18:07.100Z,14.94
2018-12-24T07:19:07.074Z,14.90
2018-12-24T07:20:07.059Z,15.00
2018-12-24T07:21:07.057Z,14.96
2018-12-24T07:22:07.038Z,14.90
2018-12-24T07:23:07.047Z,14.93
2018-12-24T07:24:07.019Z,14.94
2018-12-24T07:25:07.013Z,14.86
2018-12-24T07:26:09.023Z,14.97
2018-12-24T07:27:06.980Z,14.93
2018-12-24T07:28:06.986Z,14.99
2018-12-24T07:29:06.966Z,14.96
2018-12-24T07:30:06.955Z,14.86
2018-12-24T07:31:06.938Z,14.93
2018-12-24T07:32:06.927Z,14.90
2018-12-24T07:33:06.934Z,14.90
2018-12-24T07:34:06.911Z,14.87
2018-12-24T07:35:06.901Z,14.81
2018-12-24T07:36:06.888Z,14.92
2018-12-24T07:37:06.875Z,14.85
2018-12-24T07:38:06.885Z,14.87
2018-12-24T07:39:06.865Z,14.86
2018-12-24T07:40:06.851Z,14.79
2018-12-24T07:41:06.851Z,14.77
2018-12-24T07:42:06.823Z,14.82
2018-12-24T07:43:06.827Z,14.82
2018-12-24T07:44:06.797Z,14.78
2018-12-24T07:45:06.785Z,14.77
2018-12-24T07:46:06.776Z,14.82
2018-12-24T07:47:06.768Z,14.79
2018-12-24T07:48:06.764Z,14.82
2018-12-24T07:49:06.749Z,14.90
2018-12-24T07:50:06.735Z,14.78
2018-12-24T07:51:06.718Z,14.90
2018-12-24T07:52:06.713Z,14.82
2018-12-24T07:53:06.731Z,14.78
2018-12-24T07:54:06.691Z,14.78
2018-12-24T07:55:06.679Z,14.79
2018-12-24T07:56:06.667Z,14.73
2018-12-24T07:57:06.656Z,14.79
2018-12-24T07:58:06.647Z,14.78
2018-12-24T07:59:06.648Z,14.81
2018-12-24T08:00:06.631Z,14.81
2018-12-24T08:01:06.613Z,14.81
2018-12-24T08:02:06.611Z,14.78
2018-12-24T08:03:06.602Z,14.68
2018-12-24T08:04:06.593Z,14.77
2018-12-24T08:05:06.573Z,14.70
2018-12-24T08:06:06.557Z,14.71
2018-12-24T08:07:06.544Z,14.78
2018-12-24T08:08:06.543Z,14.77
2018-12-24T08:09:06.538Z,14.77
2018-12-24T08:10:06.509Z,14.71
2018-12-24T08:11:06.512Z,14.71
2018-12-24T08:12:06.489Z,14.66
2018-12-24T08:13:06.481Z,14.77
2018-12-24T08:14:06.500Z,14.61
2018-12-24T08:15:06.465Z,14.67
2018-12-24T08:16:06.451Z,14.71
2018-12-24T08:17:06.438Z,14.68
2018-12-24T08:18:06.425Z,14.67
2018-12-24T08:19:06.414Z,14.67
2018-12-24T08:20:06.430Z,14.68
2018-12-24T08:21:06.394Z,14.70
2018-12-24T08:22:06.384Z,14.67
2018-12-24T08:23:06.381Z,14.67
2018-12-24T08:24:06.354Z,14.70
2018-12-24T08:25:06.373Z,14.63
2018-12-24T08:26:06.334Z,14.68
2018-12-24T08:27:06.326Z,14.62
2018-12-24T08:28:06.314Z,14.70
2018-12-24T08:29:06.304Z,14.68
2018-12-24T08:30:06.331Z,14.68
2018-12-24T08:31:06.287Z,14.58
2018-12-24T08:32:06.269Z,14.67
2018-12-24T08:33:06.275Z,14.67
2018-12-24T08:34:06.251Z,14.63
2018-12-24T08:35:06.262Z,14.63
2018-12-24T08:36:06.224Z,14.68
2018-12-24T08:37:06.233Z,14.59
2018-12-24T08:38:06.207Z,14.63
2018-12-24T08:39:06.195Z,14.66
2018-12-24T08:40:06.225Z,14.68
2018-12-24T08:41:06.173Z,14.66
2018-12-24T08:42:06.170Z,14.66
2018-12-24T08:43:06.164Z,14.67
2018-12-24T08:44:06.139Z,14.66
2018-12-24T08:45:06.150Z,14.62
2018-12-24T08:46:06.120Z,14.67
2018-12-24T08:47:06.112Z,14.61
2018-12-24T08:48:06.101Z,14.62
2018-12-24T08:49:06.089Z,14.59
2018-12-24T08:50:06.091Z,14.67
2018-12-24T08:51:06.068Z,14.63
2018-12-24T08:52:06.051Z,14.62
2018-12-24T08:53:06.054Z,14.62
2018-12-24T08:54:06.098Z,14.52
2018-12-24T08:55:06.051Z,14.53
2018-12-24T08:56:06.010Z,14.61
2018-12-24T08:57:06.002Z,14.53
2018-12-24T08:58:06.045Z,14.55
2018-12-24T08:59:06.031Z,14.52
2018-12-24T09:00:05.997Z,14.51
2018-12-24T09:01:05.954Z,14.56
2018-12-24T09:02:05.946Z,14.53
2018-12-24T09:03:05.943Z,14.55
2018-12-24T09:04:05.926Z,14.53
2018-12-24T09:05:05.928Z,14.53
2018-12-24T09:06:05.903Z,14.53
2018-12-24T09:07:05.891Z,14.53
2018-12-24T09:08:05.880Z,14.51
2018-12-24T09:09:05.867Z,14.56
2018-12-24T09:10:05.883Z,14.53
2018-12-24T09:11:05.924Z,14.52
2018-12-24T09:12:05.867Z,14.53
2018-12-24T09:13:05.861Z,14.49
2018-12-24T09:14:05.814Z,14.51
2018-12-24T09:15:05.903Z,14.48
2018-12-24T09:16:05.805Z,14.51
2018-12-24T09:17:05.786Z,14.53
2018-12-24T09:18:05.779Z,14.51
2018-12-24T09:19:05.768Z,14.51
2018-12-24T09:20:05.790Z,14.48
2018-12-24T09:21:05.788Z,14.55
2018-12-24T09:22:05.730Z,14.48
2018-12-24T09:23:05.806Z,14.55
2018-12-24T09:24:05.710Z,14.56
2018-12-24T09:25:05.699Z,14.56
2018-12-24T09:26:05.705Z,14.48
2018-12-24T09:27:05.698Z,14.48
2018-12-24T09:28:05.659Z,14.51
2018-12-24T09:29:05.650Z,14.56
2018-12-24T09:30:05.643Z,14.53
2018-12-24T09:31:05.731Z,14.59
2018-12-24T09:32:05.634Z,14.51
2018-12-24T09:33:05.618Z,14.61
2018-12-24T09:34:05.593Z,14.62
2018-12-24T09:35:05.591Z,14.51
2018-12-24T09:36:05.598Z,14.52
2018-12-24T09:37:05.576Z,14.59
2018-12-24T09:38:05.560Z,14.52
2018-12-24T09:39:05.547Z,14.53
2018-12-24T09:40:05.546Z,14.63
2018-12-24T09:41:05.537Z,14.63
2018-12-24T09:42:05.521Z,14.51
2018-12-24T09:43:05.508Z,14.55
2018-12-24T09:44:05.506Z,14.52
2018-12-24T09:45:05.498Z,14.63
2018-12-24T09:46:05.502Z,14.61
2018-12-24T09:47:05.465Z,14.58
2018-12-24T09:48:05.457Z,14.55
2018-12-24T09:49:05.453Z,14.51
2018-12-24T09:50:05.444Z,14.67
2018-12-24T09:51:05.444Z,14.67
2018-12-24T09:52:05.412Z,14.63
2018-12-24T09:53:05.401Z,14.51
2018-12-24T09:54:05.412Z,14.62
2018-12-24T09:55:05.388Z,14.63
2018-12-24T09:56:05.391Z,14.59
2018-12-24T09:57:05.354Z,14.52
2018-12-24T09:58:05.342Z,14.52
2018-12-24T09:59:05.341Z,14.52
2018-12-24T10:00:05.317Z,14.55
2018-12-24T10:01:05.379Z,14.59
2018-12-24T10:02:05.322Z,14.58
2018-12-24T10:03:05.298Z,14.61
2018-12-24T10:04:05.281Z,14.55
2018-12-24T10:05:05.268Z,14.55
2018-12-24T10:06:05.295Z,14.53
2018-12-24T10:07:05.249Z,14.52
2018-12-24T10:08:05.316Z,14.52
2018-12-24T10:09:05.221Z,14.48
2018-12-24T10:10:05.221Z,14.58
2018-12-24T10:11:05.212Z,14.56
2018-12-24T10:12:05.224Z,14.58
2018-12-24T10:13:05.219Z,14.52
2018-12-24T10:14:05.183Z,14.56
2018-12-24T10:15:08.242Z,14.53
2018-12-24T10:16:05.167Z,14.59
2018-12-24T10:17:05.246Z,14.63
2018-12-24T10:18:05.181Z,14.52
2018-12-24T10:19:05.187Z,14.53
2018-12-24T10:20:05.107Z,14.56
2018-12-24T10:21:05.102Z,14.55
2018-12-24T10:22:05.110Z,14.55
2018-12-24T10:23:05.077Z,14.56
2018-12-24T10:24:05.113Z,14.56
2018-12-24T10:25:05.066Z,14.49
2018-12-24T10:26:05.098Z,14.56
2018-12-24T10:27:05.045Z,14.53
2018-12-24T10:28:05.036Z,14.49
2018-12-24T10:29:05.014Z,14.48
2018-12-24T10:30:05.002Z,14.55
2018-12-24T10:31:04.991Z,14.51
2018-12-24T10:32:04.991Z,14.56
2018-12-24T10:33:04.972Z,14.58
2018-12-24T10:34:04.977Z,14.58
2018-12-24T10:35:04.952Z,14.56
2018-12-24T10:36:04.981Z,14.55
2018-12-24T10:37:04.950Z,14.56
2018-12-24T10:38:04.918Z,14.48
2018-12-24T10:39:04.947Z,14.45
2018-12-24T10:40:04.897Z,14.48
2018-12-24T10:41:04.882Z,14.55
2018-12-24T10:42:04.897Z,14.37
2018-12-24T10:43:04.862Z,14.43
2018-12-24T10:44:04.864Z,14.55
2018-12-24T10:45:04.843Z,14.41
2018-12-24T10:46:04.834Z,14.52
2018-12-24T10:47:04.826Z,14.40
2018-12-24T10:48:04.913Z,14.37
2018-12-24T10:49:04.805Z,14.49
2018-12-24T10:50:04.815Z,14.41
2018-12-24T10:51:04.788Z,14.49
2018-12-24T10:52:04.797Z,14.43
2018-12-24T10:53:04.832Z,14.44
2018-12-24T10:54:04.823Z,14.44
2018-12-24T10:55:04.757Z,14.52
2018-12-24T10:56:04.751Z,14.52
2018-12-24T10:57:04.766Z,14.53
2018-12-24T10:58:04.724Z,14.52
2018-12-24T10:59:04.696Z,14.52
2018-12-24T11:00:04.688Z,14.41
2018-12-24T11:01:04.674Z,14.48
2018-12-24T11:02:04.671Z,14.52
2018-12-24T11:03:04.685Z,14.52
2018-12-24T11:04:04.653Z,14.52
2018-12-24T11:05:04.651Z,14.55
2018-12-24T11:06:04.626Z,14.53
2018-12-24T11:07:04.665Z,14.51
2018-12-24T11:08:04.656Z,14.52
2018-12-24T11:09:04.601Z,14.49
2018-12-24T11:10:04.607Z,14.53
2018-12-24T11:11:04.586Z,14.56
2018-12-24T11:12:04.557Z,14.51
2018-12-24T11:13:04.572Z,14.53
2018-12-24T11:14:04.540Z,14.55
2018-12-24T11:15:04.528Z,14.52
2018-12-24T11:16:04.532Z,14.49
2018-12-24T11:17:04.504Z,14.55
2018-12-24T11:18:04.535Z,14.51
2018-12-24T11:19:04.490Z,14.53
2018-12-24T11:20:04.487Z,14.53
2018-12-24T11:21:04.466Z,14.53
2018-12-24T11:22:04.465Z,14.52
2018-12-24T11:23:04.462Z,14.52
2018-12-24T11:24:04.438Z,14.51
2018-12-24T11:25:04.426Z,14.43
2018-12-24T11:26:04.449Z,14.55
2018-12-24T11:27:04.413Z,14.53
2018-12-24T11:28:04.426Z,14.49
2018-12-24T11:29:04.391Z,14.52
2018-12-24T11:30:04.380Z,14.49
2018-12-24T11:31:04.370Z,14.52
2018-12-24T11:32:04.356Z,14.55
2018-12-24T11:33:04.341Z,14.40
2018-12-24T11:34:04.365Z,14.51
2018-12-24T11:35:04.330Z,14.52
2018-12-24T11:36:04.310Z,14.51
2018-12-24T11:37:04.307Z,14.51
2018-12-24T11:38:04.298Z,14.53
2018-12-24T11:39:04.299Z,14.52
2018-12-24T11:40:04.273Z,14.41
2018-12-24T11:41:04.268Z,14.38
2018-12-24T11:42:04.254Z,14.45
2018-12-24T11:43:04.238Z,14.53
2018-12-24T11:44:04.249Z,14.43
2018-12-24T11:45:04.225Z,14.45
2018-12-24T11:46:04.210Z,14.48
2018-12-24T11:47:04.198Z,14.56
2018-12-24T11:48:04.188Z,14.53
2018-12-24T11:49:04.194Z,14.41
2018-12-24T11:50:04.178Z,14.45
2018-12-24T11:51:04.168Z,14.48
2018-12-24T11:52:04.171Z,14.51
2018-12-24T11:53:04.142Z,14.52
2018-12-24T11:54:04.144Z,14.48
2018-12-24T11:55:04.121Z,14.44
2018-12-24T11:56:04.104Z,14.41
2018-12-24T11:57:04.172Z,14.48
2018-12-24T11:58:04.085Z,14.41
2018-12-24T11:59:04.082Z,14.45
2018-12-24T12:00:04.065Z,14.41
2018-12-24T12:01:04.056Z,14.49
2018-12-24T12:02:09.999Z,14.40
2018-12-24T12:03:05.034Z,14.44
2018-12-24T12:04:04.033Z,14.43
2018-12-24T12:05:04.012Z,14.41
2018-12-24T12:06:04.009Z,14.45
2018-12-24T12:07:04.010Z,14.44
2018-12-24T12:08:03.978Z,14.44
2018-12-24T12:09:03.989Z,14.38
2018-12-24T12:10:03.964Z,14.45
2018-12-24T12:11:03.952Z,14.40
2018-12-24T12:12:03.945Z,14.44
2018-12-24T12:13:03.947Z,14.44
2018-12-24T12:14:03.947Z,14.40
2018-12-24T12:15:03.909Z,14.41
2018-12-24T12:16:03.899Z,14.41
2018-12-24T12:17:03.889Z,14.43
2018-12-24T12:18:03.874Z,14.49
2018-12-24T12:19:03.877Z,14.44
2018-12-24T12:20:03.877Z,14.37
2018-12-24T12:21:03.841Z,14.41
2018-12-24T12:22:03.843Z,14.44
2018-12-24T12:23:03.826Z,14.40
2018-12-24T12:24:03.813Z,14.43
2018-12-24T12:25:03.819Z,14.44
2018-12-24T12:26:03.818Z,14.48
2018-12-24T12:27:03.784Z,14.48
2018-12-24T12:28:03.776Z,14.44
2018-12-24T12:29:03.765Z,14.41
2018-12-24T12:30:03.765Z,14.48
2018-12-24T12:31:03.737Z,14.40
2018-12-24T12:32:03.731Z,14.45
2018-12-24T12:33:03.733Z,14.38
2018-12-24T12:34:03.718Z,14.37
2018-12-24T12:35:03.718Z,14.41
2018-12-24T12:36:03.699Z,14.51
2018-12-24T12:37:03.676Z,14.40
2018-12-24T12:38:03.680Z,14.41
2018-12-24T12:39:03.705Z,14.44
2018-12-24T12:40:03.775Z,14.45
2018-12-24T12:41:03.649Z,14.44
2018-12-24T12:42:03.640Z,14.40
2018-12-24T12:43:03.661Z,14.51
2018-12-24T12:44:03.612Z,14.38
2018-12-24T12:45:03.613Z,14.38
2018-12-24T12:46:03.588Z,14.41
2018-12-24T12:47:03.569Z,14.41
2018-12-24T12:48:03.562Z,14.40
2018-12-24T12:49:03.565Z,14.52
2018-12-24T12:50:03.573Z,14.48
2018-12-24T12:51:03.534Z,14.45
2018-12-24T12:52:03.535Z,14.41